Portada
METAR-TAF:

METAR-TAF

Aeropuertos :

Aeropuerto de San Sebastián

San Sebastián, España

latitud: 43-21N, longitud: 001-48W, altitud: 5 m

Observación

El informe se hizo hace 23 minutos, a las 13:30 UTC
Viento 4 kt del norte-noreste, variando entre norte-noroeste y este-noreste
Temperatura 14°C
Humedad 72%
Presión 1031 hPa
Visibilidad 10 km o más
Nubes dispersas a una altura de 4000 ft

METAR: LESO 101330Z 03004KT 340V060 9999 SCT040 14/09 Q1031

Hora: 14:53 (13:53 UTC)

Pronóstico

El informe se hizo hace 2 horas y 53 minutos, a las 11:00 UTC
Pronóstico válido del 10 a las 12 UTC al 11 a las 12 UTC
Viento 4 kt con dirección variable
Visibilidad: 8000 m
Nubes dispersas a una altura de 3500 ft
Probabilidad 40% :
Temporalmente
del 10 a las 15 UTC al 10 a las 18 UTC
Viento 10 kt del este-noreste

TAF: LESO 101100Z 1012/1112 VRB04KT 8000 SCT035 TX16/1013Z TN07/1106Z PROB40 TEMPO 1015/1018 06010KT

Observaciones y pronósticos meteorológicos de más de 4000 aeropuertos (mensajes METAR y TAF).

Los puntos amarillos y rojos representan las estaciones disponibles.

Ponga el ratón en el punto deseado para ver el nombre de la estación.

Haga clic para ver las observaciones y los pronósticos meteorológicos.

Para cambiar el mapa : haga clic en los botones verdes con una cruz de color negro para hacer un zoom, en el botón verde con un guión para alejar o en las flechas verdes para mapas adyacentes.


METAR-TAF: